sensor_id;sensor_type;location;lat;lon;timestamp;P1;durP1;ratioP1;P2;durP2;ratioP2
27792;SDS011;15174;48.190;11.462;2024-02-14T00:01:23;9.95;;;4.45;;
27792;SDS011;15174;48.190;11.462;2024-02-14T00:03:49;8.43;;;4.68;;
27792;SDS011;15174;48.190;11.462;2024-02-14T00:06:15;7.93;;;4.25;;
27792;SDS011;15174;48.190;11.462;2024-02-14T00:08:41;11.38;;;4.75;;
27792;SDS011;15174;48.190;11.462;2024-02-14T00:11:08;14.13;;;4.50;;
27792;SDS011;15174;48.190;11.462;2024-02-14T00:13:34;7.57;;;4.10;;
27792;SDS011;15174;48.190;11.462;2024-02-14T00:16:00;8.30;;;4.47;;
27792;SDS011;15174;48.190;11.462;2024-02-14T00:18:27;9.50;;;4.03;;
27792;SDS011;15174;48.190;11.462;2024-02-14T00:20:54;10.20;;;4.05;;
27792;SDS011;15174;48.190;11.462;2024-02-14T00:23:20;10.90;;;4.32;;
27792;SDS011;15174;48.190;11.462;2024-02-14T00:25:46;9.20;;;4.43;;
27792;SDS011;15174;48.190;11.462;2024-02-14T00:28:12;8.10;;;4.68;;
27792;SDS011;15174;48.190;11.462;2024-02-14T00:30:38;11.32;;;4.63;;
27792;SDS011;15174;48.190;11.462;2024-02-14T00:33:04;10.35;;;4.55;;
27792;SDS011;15174;48.190;11.462;2024-02-14T00:35:30;10.32;;;3.90;;
27792;SDS011;15174;48.190;11.462;2024-02-14T00:37:56;5.93;;;3.97;;
27792;SDS011;15174;48.190;11.462;2024-02-14T00:40:22;10.52;;;3.35;;
27792;SDS011;15174;48.190;11.462;2024-02-14T00:42:48;5.55;;;3.47;;
27792;SDS011;15174;48.190;11.462;2024-02-14T00:45:15;5.85;;;3.30;;
27792;SDS011;15174;48.190;11.462;2024-02-14T00:47:41;5.95;;;3.72;;
27792;SDS011;15174;48.190;11.462;2024-02-14T00:50:07;5.55;;;3.70;;
27792;SDS011;15174;48.190;11.462;2024-02-14T00:52:33;7.40;;;3.30;;
27792;SDS011;15174;48.190;11.462;2024-02-14T00:54:59;11.27;;;3.33;;
27792;SDS011;15174;48.190;11.462;2024-02-14T00:57:28;5.57;;;3.30;;
27792;SDS011;15174;48.190;11.462;2024-02-14T00:59:54;8.48;;;3.13;;
27792;SDS011;15174;48.190;11.462;2024-02-14T01:02:24;7.35;;;3.10;;
27792;SDS011;15174;48.190;11.462;2024-02-14T01:04:51;4.47;;;3.03;;
27792;SDS011;15174;48.190;11.462;2024-02-14T01:07:17;5.90;;;3.00;;
27792;SDS011;15174;48.190;11.462;2024-02-14T01:09:43;7.05;;;3.13;;
27792;SDS011;15174;48.190;11.462;2024-02-14T01:12:09;10.63;;;3.20;;
27792;SDS011;15174;48.190;11.462;2024-02-14T01:14:35;5.45;;;3.17;;
27792;SDS011;15174;48.190;11.462;2024-02-14T01:17:02;8.55;;;2.90;;
27792;SDS011;15174;48.190;11.462;2024-02-14T01:19:28;6.35;;;3.03;;
27792;SDS011;15174;48.190;11.462;2024-02-14T01:21:55;5.57;;;3.30;;
27792;SDS011;15174;48.190;11.462;2024-02-14T01:24:24;4.07;;;2.83;;
27792;SDS011;15174;48.190;11.462;2024-02-14T01:26:52;3.58;;;2.75;;
27792;SDS011;15174;48.190;11.462;2024-02-14T01:29:19;4.72;;;3.00;;
27792;SDS011;15174;48.190;11.462;2024-02-14T01:31:45;4.95;;;2.85;;
27792;SDS011;15174;48.190;11.462;2024-02-14T01:34:11;5.43;;;2.72;;
27792;SDS011;15174;48.190;11.462;2024-02-14T01:36:37;6.88;;;3.10;;
27792;SDS011;15174;48.190;11.462;2024-02-14T01:39:03;8.07;;;2.40;;
27792;SDS011;15174;48.190;11.462;2024-02-14T01:41:35;6.68;;;2.53;;
27792;SDS011;15174;48.190;11.462;2024-02-14T01:44:02;4.40;;;2.15;;
27792;SDS011;15174;48.190;11.462;2024-02-14T01:46:28;4.85;;;2.55;;
27792;SDS011;15174;48.190;11.462;2024-02-14T01:48:54;4.93;;;2.47;;
27792;SDS011;15174;48.190;11.462;2024-02-14T01:51:21;5.10;;;2.70;;
27792;SDS011;15174;48.190;11.462;2024-02-14T01:53:49;4.72;;;2.80;;
27792;SDS011;15174;48.190;11.462;2024-02-14T01:56:16;4.18;;;2.25;;
27792;SDS011;15174;48.190;11.462;2024-02-14T01:58:42;5.05;;;2.38;;
27792;SDS011;15174;48.190;11.462;2024-02-14T02:01:10;3.40;;;2.03;;
27792;SDS011;15174;48.190;11.462;2024-02-14T02:03:37;6.10;;;2.70;;
27792;SDS011;15174;48.190;11.462;2024-02-14T02:06:04;4.03;;;2.20;;
27792;SDS011;15174;48.190;11.462;2024-02-14T02:10:57;4.35;;;2.20;;
27792;SDS011;15174;48.190;11.462;2024-02-14T02:13:23;3.70;;;2.25;;
27792;SDS011;15174;48.190;11.462;2024-02-14T02:15:51;7.17;;;2.20;;
27792;SDS011;15174;48.190;11.462;2024-02-14T02:18:18;3.95;;;2.30;;
27792;SDS011;15174;48.190;11.462;2024-02-14T02:20:44;4.32;;;1.85;;
27792;SDS011;15174;48.190;11.462;2024-02-14T02:23:13;4.93;;;2.00;;
27792;SDS011;15174;48.190;11.462;2024-02-14T02:25:42;4.53;;;1.90;;
27792;SDS011;15174;48.190;11.462;2024-02-14T02:28:08;4.55;;;2.08;;
27792;SDS011;15174;48.190;11.462;2024-02-14T02:30:35;3.75;;;2.17;;
27792;SDS011;15174;48.190;11.462;2024-02-14T02:33:01;6.60;;;1.50;;
27792;SDS011;15174;48.190;11.462;2024-02-14T02:35:28;2.72;;;2.03;;
27792;SDS011;15174;48.190;11.462;2024-02-14T02:37:54;4.78;;;2.15;;
27792;SDS011;15174;48.190;11.462;2024-02-14T02:40:20;2.53;;;1.83;;
27792;SDS011;15174;48.190;11.462;2024-02-14T02:42:47;3.25;;;1.65;;
27792;SDS011;15174;48.190;11.462;2024-02-14T02:45:13;4.07;;;1.50;;
27792;SDS011;15174;48.190;11.462;2024-02-14T02:47:39;3.13;;;2.30;;
27792;SDS011;15174;48.190;11.462;2024-02-14T02:50:05;4.90;;;2.03;;
27792;SDS011;15174;48.190;11.462;2024-02-14T02:52:33;5.03;;;2.22;;
27792;SDS011;15174;48.190;11.462;2024-02-14T02:54:59;3.17;;;1.73;;
27792;SDS011;15174;48.190;11.462;2024-02-14T02:57:26;5.75;;;1.90;;
27792;SDS011;15174;48.190;11.462;2024-02-14T02:59:52;3.97;;;1.60;;
27792;SDS011;15174;48.190;11.462;2024-02-14T03:02:19;4.28;;;1.75;;
27792;SDS011;15174;48.190;11.462;2024-02-14T03:04:46;2.33;;;1.50;;
27792;SDS011;15174;48.190;11.462;2024-02-14T03:07:12;3.80;;;1.83;;
27792;SDS011;15174;48.190;11.462;2024-02-14T03:09:38;3.90;;;1.63;;
27792;SDS011;15174;48.190;11.462;2024-02-14T03:12:04;4.22;;;1.63;;
27792;SDS011;15174;48.190;11.462;2024-02-14T03:14:31;4.05;;;1.88;;
27792;SDS011;15174;48.190;11.462;2024-02-14T03:17:00;2.50;;;1.52;;
27792;SDS011;15174;48.190;11.462;2024-02-14T03:19:27;3.15;;;1.40;;
27792;SDS011;15174;48.190;11.462;2024-02-14T03:21:56;3.22;;;1.80;;
27792;SDS011;15174;48.190;11.462;2024-02-14T03:24:23;3.13;;;1.70;;
27792;SDS011;15174;48.190;11.462;2024-02-14T03:26:52;3.10;;;1.70;;
27792;SDS011;15174;48.190;11.462;2024-02-14T03:29:19;7.03;;;1.95;;
27792;SDS011;15174;48.190;11.462;2024-02-14T03:31:45;3.60;;;1.58;;
27792;SDS011;15174;48.190;11.462;2024-02-14T03:34:11;2.40;;;1.58;;
27792;SDS011;15174;48.190;11.462;2024-02-14T03:36:37;2.67;;;1.40;;
27792;SDS011;15174;48.190;11.462;2024-02-14T03:39:04;2.47;;;1.73;;
27792;SDS011;15174;48.190;11.462;2024-02-14T03:41:31;2.67;;;1.80;;
27792;SDS011;15174;48.190;11.462;2024-02-14T03:43:58;4.32;;;1.67;;
27792;SDS011;15174;48.190;11.462;2024-02-14T03:48:52;3.08;;;1.77;;
27792;SDS011;15174;48.190;11.462;2024-02-14T03:51:18;5.32;;;1.50;;
27792;SDS011;15174;48.190;11.462;2024-02-14T03:53:45;5.10;;;1.40;;
27792;SDS011;15174;48.190;11.462;2024-02-14T03:56:11;1.30;;;1.20;;
27792;SDS011;15174;48.190;11.462;2024-02-14T03:58:38;8.07;;;1.50;;
27792;SDS011;15174;48.190;11.462;2024-02-14T04:01:04;2.45;;;1.38;;
27792;SDS011;15174;48.190;11.462;2024-02-14T04:03:30;2.42;;;1.67;;
27792;SDS011;15174;48.190;11.462;2024-02-14T04:05:57;4.28;;;1.65;;
27792;SDS011;15174;48.190;11.462;2024-02-14T04:08:23;2.58;;;1.67;;
27792;SDS011;15174;48.190;11.462;2024-02-14T04:10:49;4.55;;;2.17;;
27792;SDS011;15174;48.190;11.462;2024-02-14T04:13:16;2.28;;;1.38;;
27792;SDS011;15174;48.190;11.462;2024-02-14T04:15:42;4.68;;;1.88;;
27792;SDS011;15174;48.190;11.462;2024-02-14T04:18:08;3.50;;;1.60;;
27792;SDS011;15174;48.190;11.462;2024-02-14T04:20:34;4.60;;;1.73;;
27792;SDS011;15174;48.190;11.462;2024-02-14T04:23:01;4.50;;;1.80;;
27792;SDS011;15174;48.190;11.462;2024-02-14T04:25:30;3.70;;;1.77;;
27792;SDS011;15174;48.190;11.462;2024-02-14T04:27:56;2.30;;;1.65;;
27792;SDS011;15174;48.190;11.462;2024-02-14T04:30:22;3.90;;;2.17;;
27792;SDS011;15174;48.190;11.462;2024-02-14T04:32:48;3.70;;;1.60;;
27792;SDS011;15174;48.190;11.462;2024-02-14T04:35:14;3.13;;;1.80;;
27792;SDS011;15174;48.190;11.462;2024-02-14T04:37:40;3.33;;;1.35;;
27792;SDS011;15174;48.190;11.462;2024-02-14T04:40:11;5.18;;;1.60;;
27792;SDS011;15174;48.190;11.462;2024-02-14T04:42:37;3.08;;;1.70;;
27792;SDS011;15174;48.190;11.462;2024-02-14T04:45:03;5.10;;;1.73;;
27792;SDS011;15174;48.190;11.462;2024-02-14T04:47:29;3.22;;;1.70;;
27792;SDS011;15174;48.190;11.462;2024-02-14T04:49:55;4.18;;;1.70;;
27792;SDS011;15174;48.190;11.462;2024-02-14T04:52:22;11.30;;;1.63;;
27792;SDS011;15174;48.190;11.462;2024-02-14T04:54:48;4.13;;;1.70;;
27792;SDS011;15174;48.190;11.462;2024-02-14T04:57:14;2.08;;;1.30;;
27792;SDS011;15174;48.190;11.462;2024-02-14T04:59:40;2.75;;;1.42;;
27792;SDS011;15174;48.190;11.462;2024-02-14T05:02:07;1.65;;;1.20;;
27792;SDS011;15174;48.190;11.462;2024-02-14T05:04:33;1.20;;;1.10;;
27792;SDS011;15174;48.190;11.462;2024-02-14T05:07:02;4.10;;;1.50;;
27792;SDS011;15174;48.190;11.462;2024-02-14T05:09:30;4.18;;;1.30;;
27792;SDS011;15174;48.190;11.462;2024-02-14T05:11:56;5.18;;;1.65;;
27792;SDS011;15174;48.190;11.462;2024-02-14T05:14:22;2.30;;;1.52;;
27792;SDS011;15174;48.190;11.462;2024-02-14T05:16:49;3.22;;;1.15;;
27792;SDS011;15174;48.190;11.462;2024-02-14T05:19:15;1.80;;;1.42;;
27792;SDS011;15174;48.190;11.462;2024-02-14T05:21:42;3.90;;;1.60;;
27792;SDS011;15174;48.190;11.462;2024-02-14T05:24:08;2.03;;;1.42;;
27792;SDS011;15174;48.190;11.462;2024-02-14T05:26:34;5.88;;;1.60;;
27792;SDS011;15174;48.190;11.462;2024-02-14T05:29:00;1.88;;;1.15;;
27792;SDS011;15174;48.190;11.462;2024-02-14T05:31:29;1.55;;;1.25;;
27792;SDS011;15174;48.190;11.462;2024-02-14T05:34:07;9.75;;;2.50;;
27792;SDS011;15174;48.190;11.462;2024-02-14T05:36:35;5.00;;;1.88;;
27792;SDS011;15174;48.190;11.462;2024-02-14T05:39:01;8.27;;;1.50;;
27792;SDS011;15174;48.190;11.462;2024-02-14T05:41:28;3.33;;;1.52;;
27792;SDS011;15174;48.190;11.462;2024-02-14T05:43:55;3.37;;;1.87;;
27792;SDS011;15174;48.190;11.462;2024-02-14T05:46:21;3.55;;;1.83;;
27792;SDS011;15174;48.190;11.462;2024-02-14T05:48:47;3.53;;;2.03;;
27792;SDS011;15174;48.190;11.462;2024-02-14T05:51:13;3.28;;;1.77;;
27792;SDS011;15174;48.190;11.462;2024-02-14T05:53:40;5.88;;;2.17;;
27792;SDS011;15174;48.190;11.462;2024-02-14T05:56:06;4.05;;;2.03;;
27792;SDS011;15174;48.190;11.462;2024-02-14T05:58:32;5.57;;;1.60;;
27792;SDS011;15174;48.190;11.462;2024-02-14T06:00:58;6.15;;;2.40;;
27792;SDS011;15174;48.190;11.462;2024-02-14T06:03:24;5.50;;;2.83;;
27792;SDS011;15174;48.190;11.462;2024-02-14T06:05:50;8.38;;;3.42;;
27792;SDS011;15174;48.190;11.462;2024-02-14T06:08:16;5.20;;;2.92;;
27792;SDS011;15174;48.190;11.462;2024-02-14T06:10:42;5.32;;;2.72;;
27792;SDS011;15174;48.190;11.462;2024-02-14T06:13:08;11.85;;;3.47;;
27792;SDS011;15174;48.190;11.462;2024-02-14T06:15:34;7.13;;;3.42;;
27792;SDS011;15174;48.190;11.462;2024-02-14T06:18:01;6.85;;;3.80;;
27792;SDS011;15174;48.190;11.462;2024-02-14T06:20:27;8.32;;;2.95;;
27792;SDS011;15174;48.190;11.462;2024-02-14T06:22:53;5.63;;;2.20;;
27792;SDS011;15174;48.190;11.462;2024-02-14T06:25:19;7.28;;;2.60;;
27792;SDS011;15174;48.190;11.462;2024-02-14T06:27:46;5.43;;;2.03;;
27792;SDS011;15174;48.190;11.462;2024-02-14T06:30:12;4.72;;;1.95;;
27792;SDS011;15174;48.190;11.462;2024-02-14T06:32:38;4.10;;;1.98;;
27792;SDS011;15174;48.190;11.462;2024-02-14T06:35:05;9.13;;;2.60;;
27792;SDS011;15174;48.190;11.462;2024-02-14T06:37:32;5.05;;;2.13;;
27792;SDS011;15174;48.190;11.462;2024-02-14T06:39:58;2.60;;;1.80;;
27792;SDS011;15174;48.190;11.462;2024-02-14T06:42:24;3.83;;;1.85;;
27792;SDS011;15174;48.190;11.462;2024-02-14T06:44:50;8.73;;;1.98;;
27792;SDS011;15174;48.190;11.462;2024-02-14T06:47:16;4.63;;;1.70;;
27792;SDS011;15174;48.190;11.462;2024-02-14T06:49:42;3.85;;;1.50;;
27792;SDS011;15174;48.190;11.462;2024-02-14T06:52:08;3.30;;;1.70;;
27792;SDS011;15174;48.190;11.462;2024-02-14T06:54:34;5.22;;;2.20;;
27792;SDS011;15174;48.190;11.462;2024-02-14T06:57:00;7.68;;;1.88;;
27792;SDS011;15174;48.190;11.462;2024-02-14T06:59:26;8.57;;;2.08;;
27792;SDS011;15174;48.190;11.462;2024-02-14T07:01:52;4.22;;;2.05;;
27792;SDS011;15174;48.190;11.462;2024-02-14T07:04:20;10.80;;;2.20;;
27792;SDS011;15174;48.190;11.462;2024-02-14T07:06:51;9.45;;;2.90;;
27792;SDS011;15174;48.190;11.462;2024-02-14T07:09:17;6.35;;;2.70;;
27792;SDS011;15174;48.190;11.462;2024-02-14T07:11:43;7.35;;;2.75;;
27792;SDS011;15174;48.190;11.462;2024-02-14T07:14:11;12.63;;;2.30;;
27792;SDS011;15174;48.190;11.462;2024-02-14T07:16:37;5.53;;;2.08;;
27792;SDS011;15174;48.190;11.462;2024-02-14T07:19:03;7.95;;;2.20;;
27792;SDS011;15174;48.190;11.462;2024-02-14T07:21:29;4.07;;;1.60;;
27792;SDS011;15174;48.190;11.462;2024-02-14T07:23:55;4.03;;;1.88;;
27792;SDS011;15174;48.190;11.462;2024-02-14T07:26:21;5.80;;;2.95;;
27792;SDS011;15174;48.190;11.462;2024-02-14T07:28:47;6.07;;;2.40;;
27792;SDS011;15174;48.190;11.462;2024-02-14T07:31:13;4.28;;;1.95;;
27792;SDS011;15174;48.190;11.462;2024-02-14T07:33:39;4.85;;;1.88;;
27792;SDS011;15174;48.190;11.462;2024-02-14T07:36:06;9.48;;;2.00;;
27792;SDS011;15174;48.190;11.462;2024-02-14T07:38:32;6.05;;;2.00;;
27792;SDS011;15174;48.190;11.462;2024-02-14T07:40:58;5.00;;;1.90;;
27792;SDS011;15174;48.190;11.462;2024-02-14T07:43:24;5.63;;;1.73;;
27792;SDS011;15174;48.190;11.462;2024-02-14T07:45:50;3.83;;;1.55;;
27792;SDS011;15174;48.190;11.462;2024-02-14T07:48:16;3.85;;;1.67;;
27792;SDS011;15174;48.190;11.462;2024-02-14T07:50:42;4.85;;;1.80;;
27792;SDS011;15174;48.190;11.462;2024-02-14T07:53:08;3.05;;;1.70;;
27792;SDS011;15174;48.190;11.462;2024-02-14T07:55:34;8.10;;;2.10;;
27792;SDS011;15174;48.190;11.462;2024-02-14T07:58:00;5.93;;;1.73;;
27792;SDS011;15174;48.190;11.462;2024-02-14T08:00:26;5.68;;;2.08;;
27792;SDS011;15174;48.190;11.462;2024-02-14T08:02:52;7.82;;;1.80;;
27792;SDS011;15174;48.190;11.462;2024-02-14T08:05:18;8.82;;;1.95;;
27792;SDS011;15174;48.190;11.462;2024-02-14T08:07:45;5.43;;;1.83;;
27792;SDS011;15174;48.190;11.462;2024-02-14T08:10:12;3.28;;;1.73;;
27792;SDS011;15174;48.190;11.462;2024-02-14T08:12:38;3.08;;;1.60;;
27792;SDS011;15174;48.190;11.462;2024-02-14T08:15:04;6.10;;;2.17;;
27792;SDS011;15174;48.190;11.462;2024-02-14T08:17:31;8.70;;;1.73;;
27792;SDS011;15174;48.190;11.462;2024-02-14T08:19:58;6.35;;;1.67;;
27792;SDS011;15174;48.190;11.462;2024-02-14T08:22:28;4.38;;;1.55;;
27792;SDS011;15174;48.190;11.462;2024-02-14T08:24:54;6.00;;;2.17;;
27792;SDS011;15174;48.190;11.462;2024-02-14T08:27:21;4.60;;;1.42;;
27792;SDS011;15174;48.190;11.462;2024-02-14T08:29:47;6.30;;;2.03;;
27792;SDS011;15174;48.190;11.462;2024-02-14T08:32:13;3.03;;;1.63;;
27792;SDS011;15174;48.190;11.462;2024-02-14T08:34:39;12.23;;;1.75;;
27792;SDS011;15174;48.190;11.462;2024-02-14T08:37:06;4.95;;;1.70;;
27792;SDS011;15174;48.190;11.462;2024-02-14T08:39:33;2.53;;;1.35;;
27792;SDS011;15174;48.190;11.462;2024-02-14T08:41:59;3.83;;;1.30;;
27792;SDS011;15174;48.190;11.462;2024-02-14T08:44:32;3.35;;;1.83;;
27792;SDS011;15174;48.190;11.462;2024-02-14T08:46:58;2.70;;;1.40;;
27792;SDS011;15174;48.190;11.462;2024-02-14T08:49:25;7.00;;;1.52;;
27792;SDS011;15174;48.190;11.462;2024-02-14T08:51:54;5.43;;;2.00;;
27792;SDS011;15174;48.190;11.462;2024-02-14T08:54:20;6.07;;;1.40;;
27792;SDS011;15174;48.190;11.462;2024-02-14T08:56:48;2.45;;;1.33;;
27792;SDS011;15174;48.190;11.462;2024-02-14T08:59:14;3.83;;;1.60;;
27792;SDS011;15174;48.190;11.462;2024-02-14T09:01:40;4.07;;;1.30;;
27792;SDS011;15174;48.190;11.462;2024-02-14T09:04:06;3.10;;;1.27;;
27792;SDS011;15174;48.190;11.462;2024-02-14T09:06:32;4.00;;;1.55;;
27792;SDS011;15174;48.190;11.462;2024-02-14T09:08:58;3.67;;;1.10;;
27792;SDS011;15174;48.190;11.462;2024-02-14T09:11:24;2.53;;;1.10;;
27792;SDS011;15174;48.190;11.462;2024-02-14T09:13:51;5.70;;;1.48;;
27792;SDS011;15174;48.190;11.462;2024-02-14T09:16:21;5.78;;;1.30;;
27792;SDS011;15174;48.190;11.462;2024-02-14T09:18:48;2.42;;;1.00;;
27792;SDS011;15174;48.190;11.462;2024-02-14T09:21:14;3.20;;;1.00;;
27792;SDS011;15174;48.190;11.462;2024-02-14T09:23:41;3.50;;;0.82;;
27792;SDS011;15174;48.190;11.462;2024-02-14T09:26:07;2.53;;;1.00;;
27792;SDS011;15174;48.190;11.462;2024-02-14T09:28:33;3.55;;;1.23;;
27792;SDS011;15174;48.190;11.462;2024-02-14T09:31:00;4.15;;;1.10;;
27792;SDS011;15174;48.190;11.462;2024-02-14T09:33:28;1.80;;;0.90;;
27792;SDS011;15174;48.190;11.462;2024-02-14T09:35:56;5.90;;;1.00;;
27792;SDS011;15174;48.190;11.462;2024-02-14T09:38:22;3.72;;;1.08;;
27792;SDS011;15174;48.190;11.462;2024-02-14T09:40:52;3.80;;;0.93;;
27792;SDS011;15174;48.190;11.462;2024-02-14T09:43:31;1.70;;;1.10;;
27792;SDS011;15174;48.190;11.462;2024-02-14T09:45:58;6.68;;;1.00;;
27792;SDS011;15174;48.190;11.462;2024-02-14T09:48:24;7.05;;;1.20;;
27792;SDS011;15174;48.190;11.462;2024-02-14T09:50:57;7.72;;;1.15;;
27792;SDS011;15174;48.190;11.462;2024-02-14T09:53:23;6.25;;;1.17;;
27792;SDS011;15174;48.190;11.462;2024-02-14T09:55:50;7.93;;;1.40;;
27792;SDS011;15174;48.190;11.462;2024-02-14T09:58:17;3.13;;;1.40;;
27792;SDS011;15174;48.190;11.462;2024-02-14T10:00:43;1.55;;;1.00;;
27792;SDS011;15174;48.190;11.462;2024-02-14T10:03:14;2.95;;;1.20;;
27792;SDS011;15174;48.190;11.462;2024-02-14T10:05:41;3.45;;;1.13;;
27792;SDS011;15174;48.190;11.462;2024-02-14T10:08:07;2.72;;;0.90;;
27792;SDS011;15174;48.190;11.462;2024-02-14T10:10:34;4.82;;;0.90;;
27792;SDS011;15174;48.190;11.462;2024-02-14T10:13:00;3.28;;;1.20;;
27792;SDS011;15174;48.190;11.462;2024-02-14T10:15:26;3.40;;;0.73;;
27792;SDS011;15174;48.190;11.462;2024-02-14T10:17:53;2.38;;;0.85;;
27792;SDS011;15174;48.190;11.462;2024-02-14T10:20:19;3.50;;;0.68;;
27792;SDS011;15174;48.190;11.462;2024-02-14T10:22:46;1.73;;;0.68;;
27792;SDS011;15174;48.190;11.462;2024-02-14T10:25:13;1.90;;;0.68;;
27792;SDS011;15174;48.190;11.462;2024-02-14T10:27:40;2.85;;;0.60;;
27792;SDS011;15174;48.190;11.462;2024-02-14T10:30:06;1.42;;;0.68;;
27792;SDS011;15174;48.190;11.462;2024-02-14T10:32:39;3.63;;;1.00;;
27792;SDS011;15174;48.190;11.462;2024-02-14T10:35:13;2.28;;;0.90;;
27792;SDS011;15174;48.190;11.462;2024-02-14T10:37:40;2.53;;;0.70;;
27792;SDS011;15174;48.190;11.462;2024-02-14T10:40:07;0.93;;;0.50;;
27792;SDS011;15174;48.190;11.462;2024-02-14T10:42:34;1.43;;;0.70;;
27792;SDS011;15174;48.190;11.462;2024-02-14T10:45:01;2.03;;;0.55;;
27792;SDS011;15174;48.190;11.462;2024-02-14T10:47:30;1.30;;;0.60;;
27792;SDS011;15174;48.190;11.462;2024-02-14T10:50:05;1.95;;;0.80;;
27792;SDS011;15174;48.190;11.462;2024-02-14T10:52:32;0.85;;;0.70;;
27792;SDS011;15174;48.190;11.462;2024-02-14T10:54:59;5.18;;;0.70;;
27792;SDS011;15174;48.190;11.462;2024-02-14T10:57:27;2.10;;;0.65;;
27792;SDS011;15174;48.190;11.462;2024-02-14T10:59:54;0.63;;;0.60;;
27792;SDS011;15174;48.190;11.462;2024-02-14T11:02:20;2.72;;;0.40;;
27792;SDS011;15174;48.190;11.462;2024-02-14T11:04:47;1.08;;;0.55;;
27792;SDS011;15174;48.190;11.462;2024-02-14T11:07:18;4.15;;;0.77;;
27792;SDS011;15174;48.190;11.462;2024-02-14T11:09:44;4.20;;;0.55;;
27792;SDS011;15174;48.190;11.462;2024-02-14T11:12:10;0.30;;;0.30;;
27792;SDS011;15174;48.190;11.462;2024-02-14T11:14:37;1.45;;;0.90;;
27792;SDS011;15174;48.190;11.462;2024-02-14T11:17:09;3.75;;;0.88;;
27792;SDS011;15174;48.190;11.462;2024-02-14T11:19:35;4.32;;;0.73;;
27792;SDS011;15174;48.190;11.462;2024-02-14T11:22:11;3.65;;;0.70;;
27792;SDS011;15174;48.190;11.462;2024-02-14T11:24:40;3.50;;;0.70;;
27792;SDS011;15174;48.190;11.462;2024-02-14T11:27:09;3.08;;;0.88;;
27792;SDS011;15174;48.190;11.462;2024-02-14T11:29:38;5.53;;;0.90;;
27792;SDS011;15174;48.190;11.462;2024-02-14T11:32:05;1.27;;;0.77;;
27792;SDS011;15174;48.190;11.462;2024-02-14T11:34:33;0.50;;;0.47;;
27792;SDS011;15174;48.190;11.462;2024-02-14T11:36:59;7.53;;;1.02;;
27792;SDS011;15174;48.190;11.462;2024-02-14T11:39:26;3.70;;;2.47;;
27792;SDS011;15174;48.190;11.462;2024-02-14T11:41:52;2.10;;;1.10;;
27792;SDS011;15174;48.190;11.462;2024-02-14T11:44:21;1.13;;;0.50;;
27792;SDS011;15174;48.190;11.462;2024-02-14T11:46:47;1.73;;;0.65;;
27792;SDS011;15174;48.190;11.462;2024-02-14T11:49:13;2.83;;;0.40;;
27792;SDS011;15174;48.190;11.462;2024-02-14T11:51:39;4.18;;;0.90;;
27792;SDS011;15174;48.190;11.462;2024-02-14T11:54:06;0.57;;;0.50;;
27792;SDS011;15174;48.190;11.462;2024-02-14T11:56:39;0.98;;;0.50;;
27792;SDS011;15174;48.190;11.462;2024-02-14T11:59:06;1.08;;;0.50;;
27792;SDS011;15174;48.190;11.462;2024-02-14T12:01:36;4.97;;;0.75;;
27792;SDS011;15174;48.190;11.462;2024-02-14T12:04:05;2.28;;;1.25;;
27792;SDS011;15174;48.190;11.462;2024-02-14T12:06:33;28.42;;;8.30;;
27792;SDS011;15174;48.190;11.462;2024-02-14T12:09:00;15.48;;;5.30;;
27792;SDS011;15174;48.190;11.462;2024-02-14T12:11:30;3.63;;;1.48;;
27792;SDS011;15174;48.190;11.462;2024-02-14T12:16:24;3.33;;;1.00;;
27792;SDS011;15174;48.190;11.462;2024-02-14T12:18:50;1.73;;;0.65;;
27792;SDS011;15174;48.190;11.462;2024-02-14T12:21:26;1.17;;;0.50;;
27792;SDS011;15174;48.190;11.462;2024-02-14T12:23:58;2.28;;;0.50;;
27792;SDS011;15174;48.190;11.462;2024-02-14T12:26:25;0.65;;;0.60;;
27792;SDS011;15174;48.190;11.462;2024-02-14T12:28:51;4.20;;;0.60;;
27792;SDS011;15174;48.190;11.462;2024-02-14T12:31:22;1.13;;;0.65;;
27792;SDS011;15174;48.190;11.462;2024-02-14T12:33:48;1.55;;;0.50;;
27792;SDS011;15174;48.190;11.462;2024-02-14T12:36:14;1.45;;;0.55;;
27792;SDS011;15174;48.190;11.462;2024-02-14T12:38:40;1.55;;;0.68;;
27792;SDS011;15174;48.190;11.462;2024-02-14T12:41:08;4.78;;;1.25;;
27792;SDS011;15174;48.190;11.462;2024-02-14T12:43:35;1.50;;;0.68;;
27792;SDS011;15174;48.190;11.462;2024-02-14T12:46:01;7.30;;;0.70;;
27792;SDS011;15174;48.190;11.462;2024-02-14T12:48:29;3.42;;;0.80;;
27792;SDS011;15174;48.190;11.462;2024-02-14T12:50:56;1.55;;;0.70;;
27792;SDS011;15174;48.190;11.462;2024-02-14T12:53:23;7.70;;;0.70;;
27792;SDS011;15174;48.190;11.462;2024-02-14T12:55:50;5.35;;;0.80;;
27792;SDS011;15174;48.190;11.462;2024-02-14T12:58:16;0.95;;;0.50;;
27792;SDS011;15174;48.190;11.462;2024-02-14T13:00:42;1.73;;;0.63;;
27792;SDS011;15174;48.190;11.462;2024-02-14T13:03:10;4.47;;;1.00;;
27792;SDS011;15174;48.190;11.462;2024-02-14T13:05:36;8.02;;;1.15;;
27792;SDS011;15174;48.190;11.462;2024-02-14T13:08:02;2.60;;;0.90;;
27792;SDS011;15174;48.190;11.462;2024-02-14T13:10:29;1.80;;;0.50;;
27792;SDS011;15174;48.190;11.462;2024-02-14T13:12:56;1.92;;;0.60;;
27792;SDS011;15174;48.190;11.462;2024-02-14T13:15:22;2.38;;;0.88;;
27792;SDS011;15174;48.190;11.462;2024-02-14T13:17:48;5.07;;;1.40;;
27792;SDS011;15174;48.190;11.462;2024-02-14T13:20:14;4.53;;;0.98;;
27792;SDS011;15174;48.190;11.462;2024-02-14T13:22:41;2.20;;;1.15;;
27792;SDS011;15174;48.190;11.462;2024-02-14T13:25:09;3.53;;;1.55;;
27792;SDS011;15174;48.190;11.462;2024-02-14T13:27:35;0.82;;;0.70;;
27792;SDS011;15174;48.190;11.462;2024-02-14T13:30:02;2.00;;;1.00;;
27792;SDS011;15174;48.190;11.462;2024-02-14T13:32:29;0.80;;;0.52;;
27792;SDS011;15174;48.190;11.462;2024-02-14T13:34:55;1.60;;;0.75;;
27792;SDS011;15174;48.190;11.462;2024-02-14T13:37:21;6.10;;;0.52;;
27792;SDS011;15174;48.190;11.462;2024-02-14T13:39:48;1.73;;;0.93;;
27792;SDS011;15174;48.190;11.462;2024-02-14T13:42:14;1.75;;;0.85;;
27792;SDS011;15174;48.190;11.462;2024-02-14T13:44:40;2.05;;;0.77;;
27792;SDS011;15174;48.190;11.462;2024-02-14T13:47:06;3.72;;;0.52;;
27792;SDS011;15174;48.190;11.462;2024-02-14T13:49:32;1.20;;;0.65;;
27792;SDS011;15174;48.190;11.462;2024-02-14T13:51:58;1.90;;;0.47;;
27792;SDS011;15174;48.190;11.462;2024-02-14T13:54:24;1.50;;;0.52;;
27792;SDS011;15174;48.190;11.462;2024-02-14T13:56:50;1.27;;;0.70;;
27792;SDS011;15174;48.190;11.462;2024-02-14T13:59:17;1.58;;;0.80;;
27792;SDS011;15174;48.190;11.462;2024-02-14T14:01:44;2.97;;;0.73;;
27792;SDS011;15174;48.190;11.462;2024-02-14T14:04:14;0.80;;;0.40;;
27792;SDS011;15174;48.190;11.462;2024-02-14T14:06:40;3.80;;;0.47;;
27792;SDS011;15174;48.190;11.462;2024-02-14T14:09:06;6.47;;;0.80;;
27792;SDS011;15174;48.190;11.462;2024-02-14T14:11:33;7.23;;;0.77;;
27792;SDS011;15174;48.190;11.462;2024-02-14T14:13:59;2.15;;;0.90;;
27792;SDS011;15174;48.190;11.462;2024-02-14T14:16:26;10.63;;;0.50;;
27792;SDS011;15174;48.190;11.462;2024-02-14T14:18:52;3.65;;;0.60;;
27792;SDS011;15174;48.190;11.462;2024-02-14T14:21:18;5.65;;;0.70;;
27792;SDS011;15174;48.190;11.462;2024-02-14T14:23:44;3.28;;;0.55;;
27792;SDS011;15174;48.190;11.462;2024-02-14T14:26:10;0.77;;;0.50;;
27792;SDS011;15174;48.190;11.462;2024-02-14T14:31:04;1.90;;;0.50;;
27792;SDS011;15174;48.190;11.462;2024-02-14T14:33:30;2.72;;;0.50;;
27792;SDS011;15174;48.190;11.462;2024-02-14T14:35:56;7.75;;;0.75;;
27792;SDS011;15174;48.190;11.462;2024-02-14T14:38:23;2.72;;;0.50;;
27792;SDS011;15174;48.190;11.462;2024-02-14T14:40:51;3.25;;;1.00;;